Terminal Aerodrome Forecast
Issued by NWS Binghamton, NY

Home | Current Version | Previous Version | Text Only | Print | Product List | Glossary On
Versions: 1 2 3 4 5 6 7 8 9 10 11 12 13 14 15 16 17 18 19
000
FTUS41 KBGM 041126
TAFAVP
TAF
KAVP 041126Z 0412/0512 11003KT 4SM BR SKC
     FM041300 04005KT P6SM SCT050 SCT250
     FM050900 10002KT 5SM BR SCT250=

USA.gov is the U.S. government's official web portal to all federal, state and local government web resources and services.